Terminal Aerodrome Forecast
Issued by NWS Cleveland, OH

Home | Current Version | Previous Version | Graphics & Text | Print | Product List | Glossary On
Versions: 1 2 3 4 5 6 7 8 9 10 11 12 13 14 15 16 17 18 19 20 21 22 23 24 25 26 27 28 29 30
000
FTUS41 KCLE 150900 AAA
TAFCLE
TAF AMD
KCLE 150920Z 1509/1612 22005KT 5SM BR OVC025
      TEMPO 1511/1513 3SM BR OVC015
     FM151500 17006KT P6SM OVC030
     FM152100 13006KT P6SM OVC025=

USA.gov is the U.S. government's official web portal to all federal, state and local government web resources and services.